sensor_id;sensor_type;location;lat;lon;timestamp;P1;durP1;ratioP1;P2;durP2;ratioP2
52898;SDS011;38763;53.096;6.062;2023-09-19T00:01:19;11.20;;;2.13;;
52898;SDS011;38763;53.096;6.062;2023-09-19T00:03:45;13.70;;;2.55;;
52898;SDS011;38763;53.096;6.062;2023-09-19T00:06:11;9.38;;;2.55;;
52898;SDS011;38763;53.096;6.062;2023-09-19T00:08:40;14.43;;;2.65;;
52898;SDS011;38763;53.096;6.062;2023-09-19T00:11:09;13.07;;;3.08;;
52898;SDS011;38763;53.096;6.062;2023-09-19T00:13:36;13.60;;;2.42;;
52898;SDS011;38763;53.096;6.062;2023-09-19T00:16:08;13.90;;;2.50;;
52898;SDS011;38763;53.096;6.062;2023-09-19T00:18:35;15.82;;;2.47;;
52898;SDS011;38763;53.096;6.062;2023-09-19T00:21:04;8.60;;;2.05;;
52898;SDS011;38763;53.096;6.062;2023-09-19T00:23:30;9.32;;;1.95;;
52898;SDS011;38763;53.096;6.062;2023-09-19T00:25:59;14.85;;;2.10;;
52898;SDS011;38763;53.096;6.062;2023-09-19T00:28:25;11.95;;;2.35;;
52898;SDS011;38763;53.096;6.062;2023-09-19T00:30:51;11.57;;;2.35;;
52898;SDS011;38763;53.096;6.062;2023-09-19T00:33:19;9.48;;;1.95;;
52898;SDS011;38763;53.096;6.062;2023-09-19T00:35:48;11.18;;;1.67;;
52898;SDS011;38763;53.096;6.062;2023-09-19T00:38:14;8.48;;;1.90;;
52898;SDS011;38763;53.096;6.062;2023-09-19T00:40:46;10.43;;;2.30;;
52898;SDS011;38763;53.096;6.062;2023-09-19T00:43:12;7.90;;;2.00;;
52898;SDS011;38763;53.096;6.062;2023-09-19T00:45:39;9.15;;;1.80;;
52898;SDS011;38763;53.096;6.062;2023-09-19T00:48:08;14.55;;;2.15;;
52898;SDS011;38763;53.096;6.062;2023-09-19T00:50:35;12.43;;;2.25;;
52898;SDS011;38763;53.096;6.062;2023-09-19T00:53:01;8.20;;;1.75;;
52898;SDS011;38763;53.096;6.062;2023-09-19T00:55:34;9.02;;;1.88;;
52898;SDS011;38763;53.096;6.062;2023-09-19T00:58:02;8.77;;;1.88;;
52898;SDS011;38763;53.096;6.062;2023-09-19T01:00:28;14.30;;;2.20;;
52898;SDS011;38763;53.096;6.062;2023-09-19T01:02:54;7.22;;;1.88;;
52898;SDS011;38763;53.096;6.062;2023-09-19T01:05:20;10.05;;;1.85;;
52898;SDS011;38763;53.096;6.062;2023-09-19T01:07:46;9.40;;;2.03;;
52898;SDS011;38763;53.096;6.062;2023-09-19T01:10:17;13.23;;;1.88;;
52898;SDS011;38763;53.096;6.062;2023-09-19T01:18:03;9.18;;;2.20;;
52898;SDS011;38763;53.096;6.062;2023-09-19T01:20:56;8.05;;;1.85;;
52898;SDS011;38763;53.096;6.062;2023-09-19T01:23:59;8.70;;;1.70;;
52898;SDS011;38763;53.096;6.062;2023-09-19T01:29:33;9.82;;;2.08;;
52898;SDS011;38763;53.096;6.062;2023-09-19T01:32:05;14.30;;;2.10;;
52898;SDS011;38763;53.096;6.062;2023-09-19T01:37:30;8.52;;;2.00;;
52898;SDS011;38763;53.096;6.062;2023-09-19T01:40:00;15.48;;;2.20;;
52898;SDS011;38763;53.096;6.062;2023-09-19T01:51:18;10.88;;;1.83;;
52898;SDS011;38763;53.096;6.062;2023-09-19T01:54:00;13.43;;;2.20;;
52898;SDS011;38763;53.096;6.062;2023-09-19T01:56:29;8.88;;;1.90;;
52898;SDS011;38763;53.096;6.062;2023-09-19T01:59:02;9.25;;;2.00;;
52898;SDS011;38763;53.096;6.062;2023-09-19T02:01:32;11.35;;;2.22;;
52898;SDS011;38763;53.096;6.062;2023-09-19T02:04:00;7.53;;;1.80;;
52898;SDS011;38763;53.096;6.062;2023-09-19T02:06:26;9.13;;;1.85;;
52898;SDS011;38763;53.096;6.062;2023-09-19T02:08:52;7.55;;;1.95;;
52898;SDS011;38763;53.096;6.062;2023-09-19T02:11:19;10.95;;;1.83;;
52898;SDS011;38763;53.096;6.062;2023-09-19T02:13:45;13.38;;;1.80;;
52898;SDS011;38763;53.096;6.062;2023-09-19T02:16:10;8.98;;;1.65;;
52898;SDS011;38763;53.096;6.062;2023-09-19T02:18:37;9.35;;;1.60;;
52898;SDS011;38763;53.096;6.062;2023-09-19T02:21:04;9.68;;;1.70;;
52898;SDS011;38763;53.096;6.062;2023-09-19T02:23:31;6.80;;;1.60;;
52898;SDS011;38763;53.096;6.062;2023-09-19T02:25:58;8.93;;;1.70;;
52898;SDS011;38763;53.096;6.062;2023-09-19T02:28:28;11.38;;;1.90;;
52898;SDS011;38763;53.096;6.062;2023-09-19T02:30:57;9.13;;;2.00;;
52898;SDS011;38763;53.096;6.062;2023-09-19T02:33:26;9.50;;;2.17;;
52898;SDS011;38763;53.096;6.062;2023-09-19T02:35:58;7.22;;;1.60;;
52898;SDS011;38763;53.096;6.062;2023-09-19T02:38:27;7.50;;;2.13;;
52898;SDS011;38763;53.096;6.062;2023-09-19T02:40:53;8.90;;;1.75;;
52898;SDS011;38763;53.096;6.062;2023-09-19T02:43:22;13.20;;;1.90;;
52898;SDS011;38763;53.096;6.062;2023-09-19T02:45:48;8.60;;;1.98;;
52898;SDS011;38763;53.096;6.062;2023-09-19T02:48:15;11.75;;;1.90;;
52898;SDS011;38763;53.096;6.062;2023-09-19T02:50:42;10.98;;;1.92;;
52898;SDS011;38763;53.096;6.062;2023-09-19T02:53:09;10.00;;;1.95;;
52898;SDS011;38763;53.096;6.062;2023-09-19T02:55:37;11.00;;;1.98;;
52898;SDS011;38763;53.096;6.062;2023-09-19T02:58:05;12.10;;;1.90;;
52898;SDS011;38763;53.096;6.062;2023-09-19T03:00:36;12.07;;;1.73;;
52898;SDS011;38763;53.096;6.062;2023-09-19T03:03:02;8.40;;;2.03;;
52898;SDS011;38763;53.096;6.062;2023-09-19T03:05:28;7.95;;;1.58;;
52898;SDS011;38763;53.096;6.062;2023-09-19T03:07:56;11.23;;;1.90;;
52898;SDS011;38763;53.096;6.062;2023-09-19T03:10:22;9.63;;;2.05;;
52898;SDS011;38763;53.096;6.062;2023-09-19T03:12:49;13.48;;;1.60;;
52898;SDS011;38763;53.096;6.062;2023-09-19T03:15:15;12.30;;;1.83;;
52898;SDS011;38763;53.096;6.062;2023-09-19T03:17:45;10.50;;;1.55;;
52898;SDS011;38763;53.096;6.062;2023-09-19T03:20:11;11.35;;;1.60;;
52898;SDS011;38763;53.096;6.062;2023-09-19T03:22:42;11.07;;;2.10;;
52898;SDS011;38763;53.096;6.062;2023-09-19T03:25:11;12.05;;;1.92;;
52898;SDS011;38763;53.096;6.062;2023-09-19T03:27:38;11.60;;;1.90;;
52898;SDS011;38763;53.096;6.062;2023-09-19T03:30:04;9.48;;;1.80;;
52898;SDS011;38763;53.096;6.062;2023-09-19T03:32:34;10.20;;;2.00;;
52898;SDS011;38763;53.096;6.062;2023-09-19T03:35:08;9.38;;;1.95;;
52898;SDS011;38763;53.096;6.062;2023-09-19T03:37:34;11.90;;;2.00;;
52898;SDS011;38763;53.096;6.062;2023-09-19T03:39:59;9.52;;;1.63;;
52898;SDS011;38763;53.096;6.062;2023-09-19T03:42:29;8.25;;;1.63;;
52898;SDS011;38763;53.096;6.062;2023-09-19T03:44:56;10.38;;;1.95;;
52898;SDS011;38763;53.096;6.062;2023-09-19T03:47:22;7.72;;;2.13;;
52898;SDS011;38763;53.096;6.062;2023-09-19T03:49:47;7.47;;;1.52;;
52898;SDS011;38763;53.096;6.062;2023-09-19T03:52:13;13.23;;;2.10;;
52898;SDS011;38763;53.096;6.062;2023-09-19T03:54:40;9.20;;;1.85;;
52898;SDS011;38763;53.096;6.062;2023-09-19T03:57:06;8.75;;;1.58;;
52898;SDS011;38763;53.096;6.062;2023-09-19T03:59:32;11.65;;;1.80;;
52898;SDS011;38763;53.096;6.062;2023-09-19T04:01:58;7.40;;;1.60;;
52898;SDS011;38763;53.096;6.062;2023-09-19T04:04:24;9.85;;;1.80;;
52898;SDS011;38763;53.096;6.062;2023-09-19T04:06:52;7.40;;;1.80;;
52898;SDS011;38763;53.096;6.062;2023-09-19T04:09:18;7.00;;;1.65;;
52898;SDS011;38763;53.096;6.062;2023-09-19T04:11:44;10.55;;;2.00;;
52898;SDS011;38763;53.096;6.062;2023-09-19T04:14:09;9.93;;;1.90;;
52898;SDS011;38763;53.096;6.062;2023-09-19T04:16:35;7.45;;;1.55;;
52898;SDS011;38763;53.096;6.062;2023-09-19T04:19:01;11.77;;;1.95;;
52898;SDS011;38763;53.096;6.062;2023-09-19T04:21:28;14.07;;;2.05;;
52898;SDS011;38763;53.096;6.062;2023-09-19T04:23:54;9.45;;;1.90;;
52898;SDS011;38763;53.096;6.062;2023-09-19T04:26:20;8.52;;;2.35;;
52898;SDS011;38763;53.096;6.062;2023-09-19T04:28:46;8.52;;;2.03;;
52898;SDS011;38763;53.096;6.062;2023-09-19T04:31:12;9.20;;;2.08;;
52898;SDS011;38763;53.096;6.062;2023-09-19T04:33:39;8.00;;;1.80;;
52898;SDS011;38763;53.096;6.062;2023-09-19T04:36:04;9.20;;;1.90;;
52898;SDS011;38763;53.096;6.062;2023-09-19T04:38:32;8.52;;;1.90;;
52898;SDS011;38763;53.096;6.062;2023-09-19T04:40:58;14.70;;;2.00;;
52898;SDS011;38763;53.096;6.062;2023-09-19T04:43:24;8.68;;;1.73;;
52898;SDS011;38763;53.096;6.062;2023-09-19T04:45:50;12.00;;;2.10;;
52898;SDS011;38763;53.096;6.062;2023-09-19T04:48:20;9.15;;;2.03;;
52898;SDS011;38763;53.096;6.062;2023-09-19T04:50:51;8.90;;;2.03;;
52898;SDS011;38763;53.096;6.062;2023-09-19T04:53:17;11.35;;;1.85;;
52898;SDS011;38763;53.096;6.062;2023-09-19T04:55:47;7.15;;;1.40;;
52898;SDS011;38763;53.096;6.062;2023-09-19T04:58:15;10.93;;;1.92;;
52898;SDS011;38763;53.096;6.062;2023-09-19T05:00:41;12.50;;;1.77;;
52898;SDS011;38763;53.096;6.062;2023-09-19T05:03:07;11.80;;;1.67;;
52898;SDS011;38763;53.096;6.062;2023-09-19T05:05:33;14.52;;;2.00;;
52898;SDS011;38763;53.096;6.062;2023-09-19T05:07:59;9.18;;;1.92;;
52898;SDS011;38763;53.096;6.062;2023-09-19T05:10:25;12.70;;;2.00;;
52898;SDS011;38763;53.096;6.062;2023-09-19T05:12:54;13.55;;;1.75;;
52898;SDS011;38763;53.096;6.062;2023-09-19T05:15:20;10.55;;;1.95;;
52898;SDS011;38763;53.096;6.062;2023-09-19T05:17:52;13.25;;;2.53;;
52898;SDS011;38763;53.096;6.062;2023-09-19T05:20:20;9.93;;;2.00;;
52898;SDS011;38763;53.096;6.062;2023-09-19T05:23:01;10.75;;;1.90;;
52898;SDS011;38763;53.096;6.062;2023-09-19T05:25:28;12.32;;;2.28;;
52898;SDS011;38763;53.096;6.062;2023-09-19T05:27:56;11.18;;;2.50;;
52898;SDS011;38763;53.096;6.062;2023-09-19T05:30:23;11.88;;;2.20;;
52898;SDS011;38763;53.096;6.062;2023-09-19T05:32:49;11.63;;;1.88;;
52898;SDS011;38763;53.096;6.062;2023-09-19T05:35:16;8.85;;;1.73;;
52898;SDS011;38763;53.096;6.062;2023-09-19T05:37:42;17.70;;;1.83;;
52898;SDS011;38763;53.096;6.062;2023-09-19T05:40:07;10.98;;;1.77;;
52898;SDS011;38763;53.096;6.062;2023-09-19T05:42:37;8.20;;;1.80;;
52898;SDS011;38763;53.096;6.062;2023-09-19T05:45:04;12.55;;;1.90;;
52898;SDS011;38763;53.096;6.062;2023-09-19T05:47:31;12.20;;;1.70;;
52898;SDS011;38763;53.096;6.062;2023-09-19T05:49:57;9.65;;;1.73;;
52898;SDS011;38763;53.096;6.062;2023-09-19T05:52:24;12.73;;;1.77;;
52898;SDS011;38763;53.096;6.062;2023-09-19T05:54:50;14.02;;;1.88;;
52898;SDS011;38763;53.096;6.062;2023-09-19T05:57:16;10.35;;;1.70;;
52898;SDS011;38763;53.096;6.062;2023-09-19T05:59:41;10.27;;;2.00;;
52898;SDS011;38763;53.096;6.062;2023-09-19T06:02:08;14.70;;;2.53;;
52898;SDS011;38763;53.096;6.062;2023-09-19T06:04:35;10.05;;;1.85;;
52898;SDS011;38763;53.096;6.062;2023-09-19T06:07:00;12.50;;;1.60;;
52898;SDS011;38763;53.096;6.062;2023-09-19T06:09:30;10.40;;;1.90;;
52898;SDS011;38763;53.096;6.062;2023-09-19T06:11:57;10.38;;;1.70;;
52898;SDS011;38763;53.096;6.062;2023-09-19T06:14:23;10.38;;;1.90;;
52898;SDS011;38763;53.096;6.062;2023-09-19T06:16:49;13.90;;;2.35;;
52898;SDS011;38763;53.096;6.062;2023-09-19T06:19:15;9.27;;;1.50;;
52898;SDS011;38763;53.096;6.062;2023-09-19T06:21:40;12.48;;;1.83;;
52898;SDS011;38763;53.096;6.062;2023-09-19T06:24:06;6.65;;;1.80;;
52898;SDS011;38763;53.096;6.062;2023-09-19T06:26:32;12.05;;;2.25;;
52898;SDS011;38763;53.096;6.062;2023-09-19T06:28:58;11.40;;;1.70;;
52898;SDS011;38763;53.096;6.062;2023-09-19T06:31:24;8.77;;;1.60;;
52898;SDS011;38763;53.096;6.062;2023-09-19T06:33:51;28.73;;;2.10;;
52898;SDS011;38763;53.096;6.062;2023-09-19T06:36:17;11.50;;;1.77;;
52898;SDS011;38763;53.096;6.062;2023-09-19T06:38:44;9.02;;;1.73;;
52898;SDS011;38763;53.096;6.062;2023-09-19T06:41:10;11.02;;;1.77;;
52898;SDS011;38763;53.096;6.062;2023-09-19T06:43:36;6.95;;;1.77;;
52898;SDS011;38763;53.096;6.062;2023-09-19T06:46:02;7.68;;;1.30;;
52898;SDS011;38763;53.096;6.062;2023-09-19T06:48:27;11.60;;;2.67;;
52898;SDS011;38763;53.096;6.062;2023-09-19T06:50:55;9.15;;;1.60;;
52898;SDS011;38763;53.096;6.062;2023-09-19T06:53:21;15.23;;;2.03;;
52898;SDS011;38763;53.096;6.062;2023-09-19T06:55:48;10.60;;;1.80;;
52898;SDS011;38763;53.096;6.062;2023-09-19T06:58:15;12.73;;;2.63;;
52898;SDS011;38763;53.096;6.062;2023-09-19T07:00:41;10.20;;;1.58;;
52898;SDS011;38763;53.096;6.062;2023-09-19T07:03:07;14.23;;;1.98;;
52898;SDS011;38763;53.096;6.062;2023-09-19T07:05:36;8.88;;;1.70;;
52898;SDS011;38763;53.096;6.062;2023-09-19T07:08:04;9.98;;;1.75;;
52898;SDS011;38763;53.096;6.062;2023-09-19T07:10:34;13.57;;;1.67;;
52898;SDS011;38763;53.096;6.062;2023-09-19T07:13:01;8.20;;;1.55;;
52898;SDS011;38763;53.096;6.062;2023-09-19T07:15:28;12.25;;;2.17;;
52898;SDS011;38763;53.096;6.062;2023-09-19T07:17:56;9.63;;;1.80;;
52898;SDS011;38763;53.096;6.062;2023-09-19T07:20:22;11.38;;;2.35;;
52898;SDS011;38763;53.096;6.062;2023-09-19T07:22:51;9.80;;;1.48;;
52898;SDS011;38763;53.096;6.062;2023-09-19T07:25:16;8.05;;;1.38;;
52898;SDS011;38763;53.096;6.062;2023-09-19T07:27:42;15.25;;;1.98;;
52898;SDS011;38763;53.096;6.062;2023-09-19T07:30:09;9.07;;;1.90;;
52898;SDS011;38763;53.096;6.062;2023-09-19T07:32:36;7.90;;;1.75;;
52898;SDS011;38763;53.096;6.062;2023-09-19T07:35:03;9.52;;;1.92;;
52898;SDS011;38763;53.096;6.062;2023-09-19T07:37:30;9.10;;;1.70;;
52898;SDS011;38763;53.096;6.062;2023-09-19T07:40:01;11.65;;;2.00;;
52898;SDS011;38763;53.096;6.062;2023-09-19T07:42:28;8.27;;;1.58;;
52898;SDS011;38763;53.096;6.062;2023-09-19T07:44:53;10.07;;;1.83;;
52898;SDS011;38763;53.096;6.062;2023-09-19T07:47:22;8.98;;;2.25;;
52898;SDS011;38763;53.096;6.062;2023-09-19T07:49:48;11.63;;;1.83;;
52898;SDS011;38763;53.096;6.062;2023-09-19T07:52:13;9.45;;;2.05;;
52898;SDS011;38763;53.096;6.062;2023-09-19T07:54:40;11.68;;;2.40;;
52898;SDS011;38763;53.096;6.062;2023-09-19T07:57:06;9.10;;;2.00;;
52898;SDS011;38763;53.096;6.062;2023-09-19T07:59:32;8.63;;;1.80;;
52898;SDS011;38763;53.096;6.062;2023-09-19T08:01:58;8.80;;;2.03;;
52898;SDS011;38763;53.096;6.062;2023-09-19T08:04:23;12.23;;;2.28;;
52898;SDS011;38763;53.096;6.062;2023-09-19T08:06:51;8.93;;;2.38;;
52898;SDS011;38763;53.096;6.062;2023-09-19T08:09:17;9.00;;;1.88;;
52898;SDS011;38763;53.096;6.062;2023-09-19T08:11:46;9.05;;;2.05;;
52898;SDS011;38763;53.096;6.062;2023-09-19T08:14:12;9.32;;;1.95;;
52898;SDS011;38763;53.096;6.062;2023-09-19T08:16:39;7.05;;;1.95;;
52898;SDS011;38763;53.096;6.062;2023-09-19T08:19:05;11.48;;;2.25;;
52898;SDS011;38763;53.096;6.062;2023-09-19T08:21:31;9.05;;;2.20;;
52898;SDS011;38763;53.096;6.062;2023-09-19T08:23:57;11.60;;;2.10;;
52898;SDS011;38763;53.096;6.062;2023-09-19T08:26:22;12.00;;;2.28;;
52898;SDS011;38763;53.096;6.062;2023-09-19T08:28:49;14.27;;;2.20;;
52898;SDS011;38763;53.096;6.062;2023-09-19T08:31:16;12.20;;;2.75;;
52898;SDS011;38763;53.096;6.062;2023-09-19T08:33:42;9.05;;;1.85;;
52898;SDS011;38763;53.096;6.062;2023-09-19T08:36:10;10.63;;;2.10;;
52898;SDS011;38763;53.096;6.062;2023-09-19T08:38:37;10.80;;;2.70;;
52898;SDS011;38763;53.096;6.062;2023-09-19T08:41:06;10.63;;;2.40;;
52898;SDS011;38763;53.096;6.062;2023-09-19T08:43:33;9.32;;;1.85;;
52898;SDS011;38763;53.096;6.062;2023-09-19T08:46:04;8.55;;;2.40;;
52898;SDS011;38763;53.096;6.062;2023-09-19T08:48:39;12.23;;;2.17;;
52898;SDS011;38763;53.096;6.062;2023-09-19T08:51:16;10.13;;;2.30;;
52898;SDS011;38763;53.096;6.062;2023-09-19T08:54:07;11.70;;;2.13;;
52898;SDS011;38763;53.096;6.062;2023-09-19T08:56:33;10.60;;;2.45;;
52898;SDS011;38763;53.096;6.062;2023-09-19T08:59:00;12.40;;;2.20;;
52898;SDS011;38763;53.096;6.062;2023-09-19T09:01:27;15.23;;;2.45;;
52898;SDS011;38763;53.096;6.062;2023-09-19T09:03:54;12.00;;;2.30;;
52898;SDS011;38763;53.096;6.062;2023-09-19T09:06:21;14.52;;;2.15;;
52898;SDS011;38763;53.096;6.062;2023-09-19T09:08:48;9.93;;;2.15;;
52898;SDS011;38763;53.096;6.062;2023-09-19T09:11:15;10.68;;;2.45;;
52898;SDS011;38763;53.096;6.062;2023-09-19T09:13:43;9.95;;;2.10;;
52898;SDS011;38763;53.096;6.062;2023-09-19T09:16:12;12.10;;;2.00;;
52898;SDS011;38763;53.096;6.062;2023-09-19T09:18:38;12.32;;;2.80;;
52898;SDS011;38763;53.096;6.062;2023-09-19T09:21:06;10.45;;;2.55;;
52898;SDS011;38763;53.096;6.062;2023-09-19T09:23:31;9.57;;;2.15;;
52898;SDS011;38763;53.096;6.062;2023-09-19T09:25:58;11.68;;;1.90;;
52898;SDS011;38763;53.096;6.062;2023-09-19T09:28:28;9.68;;;2.05;;
52898;SDS011;38763;53.096;6.062;2023-09-19T09:30:55;10.35;;;2.13;;
52898;SDS011;38763;53.096;6.062;2023-09-19T09:33:23;9.27;;;2.40;;
52898;SDS011;38763;53.096;6.062;2023-09-19T09:35:53;15.13;;;3.17;;
52898;SDS011;38763;53.096;6.062;2023-09-19T09:38:22;10.13;;;2.30;;
52898;SDS011;38763;53.096;6.062;2023-09-19T09:40:52;14.48;;;2.72;;
52898;SDS011;38763;53.096;6.062;2023-09-19T09:43:25;15.20;;;2.67;;
52898;SDS011;38763;53.096;6.062;2023-09-19T09:46:05;11.05;;;2.38;;
52898;SDS011;38763;53.096;6.062;2023-09-19T09:51:41;10.95;;;2.58;;
52898;SDS011;38763;53.096;6.062;2023-09-19T09:54:34;14.40;;;2.50;;
52898;SDS011;38763;53.096;6.062;2023-09-19T09:57:04;14.70;;;2.63;;
52898;SDS011;38763;53.096;6.062;2023-09-19T09:59:46;15.27;;;3.03;;
52898;SDS011;38763;53.096;6.062;2023-09-19T10:02:18;15.50;;;3.00;;
52898;SDS011;38763;53.096;6.062;2023-09-19T10:04:55;12.68;;;2.88;;
52898;SDS011;38763;53.096;6.062;2023-09-19T10:07:32;18.30;;;3.22;;
52898;SDS011;38763;53.096;6.062;2023-09-19T10:10:04;10.48;;;2.58;;
52898;SDS011;38763;53.096;6.062;2023-09-19T10:12:47;12.32;;;2.40;;
52898;SDS011;38763;53.096;6.062;2023-09-19T10:15:17;13.60;;;2.40;;
52898;SDS011;38763;53.096;6.062;2023-09-19T10:17:45;10.17;;;2.60;;
52898;SDS011;38763;53.096;6.062;2023-09-19T10:20:13;21.25;;;2.90;;
52898;SDS011;38763;53.096;6.062;2023-09-19T10:23:12;14.45;;;3.03;;
52898;SDS011;38763;53.096;6.062;2023-09-19T10:25:42;11.68;;;3.03;;
52898;SDS011;38763;53.096;6.062;2023-09-19T10:28:12;15.77;;;3.03;;
52898;SDS011;38763;53.096;6.062;2023-09-19T10:30:44;12.65;;;3.40;;
52898;SDS011;38763;53.096;6.062;2023-09-19T10:33:18;18.02;;;2.83;;
52898;SDS011;38763;53.096;6.062;2023-09-19T10:35:51;13.77;;;2.60;;
52898;SDS011;38763;53.096;6.062;2023-09-19T10:38:19;13.02;;;2.55;;
52898;SDS011;38763;53.096;6.062;2023-09-19T10:40:53;14.00;;;2.47;;
52898;SDS011;38763;53.096;6.062;2023-09-19T10:43:25;12.38;;;2.60;;
52898;SDS011;38763;53.096;6.062;2023-09-19T10:45:56;14.57;;;2.72;;
52898;SDS011;38763;53.096;6.062;2023-09-19T10:48:26;9.25;;;2.58;;
52898;SDS011;38763;53.096;6.062;2023-09-19T10:53:40;12.68;;;2.60;;
52898;SDS011;38763;53.096;6.062;2023-09-19T10:56:15;10.38;;;2.40;;
52898;SDS011;38763;53.096;6.062;2023-09-19T10:58:44;16.17;;;2.90;;
52898;SDS011;38763;53.096;6.062;2023-09-19T11:01:10;10.65;;;2.22;;
52898;SDS011;38763;53.096;6.062;2023-09-19T11:03:40;13.15;;;2.85;;
52898;SDS011;38763;53.096;6.062;2023-09-19T11:06:13;10.93;;;2.72;;
52898;SDS011;38763;53.096;6.062;2023-09-19T11:09:02;13.65;;;2.90;;
52898;SDS011;38763;53.096;6.062;2023-09-19T11:11:47;21.33;;;3.67;;
52898;SDS011;38763;53.096;6.062;2023-09-19T11:30:41;17.55;;;2.58;;
52898;SDS011;38763;53.096;6.062;2023-09-19T11:33:18;16.60;;;2.83;;
52898;SDS011;38763;53.096;6.062;2023-09-19T11:36:08;11.23;;;2.60;;
52898;SDS011;38763;53.096;6.062;2023-09-19T11:43:46;9.75;;;2.80;;
52898;SDS011;38763;53.096;6.062;2023-09-19T11:46:13;13.80;;;2.75;;
52898;SDS011;38763;53.096;6.062;2023-09-19T11:48:42;11.65;;;2.72;;
52898;SDS011;38763;53.096;6.062;2023-09-19T11:51:43;13.93;;;2.85;;
52898;SDS011;38763;53.096;6.062;2023-09-19T11:54:11;15.85;;;2.28;;
52898;SDS011;38763;53.096;6.062;2023-09-19T11:56:50;13.95;;;2.90;;
52898;SDS011;38763;53.096;6.062;2023-09-19T11:59:26;14.55;;;2.83;;
52898;SDS011;38763;53.096;6.062;2023-09-19T12:02:04;12.35;;;2.83;;
52898;SDS011;38763;53.096;6.062;2023-09-19T12:04:34;11.00;;;2.45;;
52898;SDS011;38763;53.096;6.062;2023-09-19T12:07:07;12.82;;;2.75;;
52898;SDS011;38763;53.096;6.062;2023-09-19T12:09:40;15.85;;;2.60;;
52898;SDS011;38763;53.096;6.062;2023-09-19T12:12:26;10.20;;;2.65;;
52898;SDS011;38763;53.096;6.062;2023-09-19T12:14:52;10.90;;;2.40;;
52898;SDS011;38763;53.096;6.062;2023-09-19T12:17:20;13.43;;;2.72;;
52898;SDS011;38763;53.096;6.062;2023-09-19T12:19:51;10.48;;;2.47;;
52898;SDS011;38763;53.096;6.062;2023-09-19T12:22:20;13.80;;;2.55;;
52898;SDS011;38763;53.096;6.062;2023-09-19T12:24:46;10.57;;;2.38;;
52898;SDS011;38763;53.096;6.062;2023-09-19T12:27:13;14.95;;;2.38;;
52898;SDS011;38763;53.096;6.062;2023-09-19T12:32:09;10.00;;;2.10;;
52898;SDS011;38763;53.096;6.062;2023-09-19T12:34:35;9.18;;;2.20;;
52898;SDS011;38763;53.096;6.062;2023-09-19T12:37:08;11.15;;;2.50;;
52898;SDS011;38763;53.096;6.062;2023-09-19T12:39:41;13.48;;;2.50;;
52898;SDS011;38763;53.096;6.062;2023-09-19T12:42:09;13.02;;;2.65;;
52898;SDS011;38763;53.096;6.062;2023-09-19T12:44:40;8.00;;;1.83;;
52898;SDS011;38763;53.096;6.062;2023-09-19T12:47:11;10.38;;;1.83;;
52898;SDS011;38763;53.096;6.062;2023-09-19T12:52:48;8.15;;;1.70;;
52898;SDS011;38763;53.096;6.062;2023-09-19T12:55:28;8.52;;;1.75;;
52898;SDS011;38763;53.096;6.062;2023-09-19T13:00:40;8.23;;;1.90;;
52898;SDS011;38763;53.096;6.062;2023-09-19T13:03:25;9.80;;;2.33;;
52898;SDS011;38763;53.096;6.062;2023-09-19T13:06:00;7.10;;;1.90;;
52898;SDS011;38763;53.096;6.062;2023-09-19T13:08:48;15.65;;;2.28;;
52898;SDS011;38763;53.096;6.062;2023-09-19T13:11:19;9.75;;;1.90;;
52898;SDS011;38763;53.096;6.062;2023-09-19T13:16:19;8.38;;;1.88;;
52898;SDS011;38763;53.096;6.062;2023-09-19T13:21:34;10.40;;;2.30;;
52898;SDS011;38763;53.096;6.062;2023-09-19T13:26:52;10.98;;;1.80;;
52898;SDS011;38763;53.096;6.062;2023-09-19T13:29:18;8.35;;;1.95;;
52898;SDS011;38763;53.096;6.062;2023-09-19T13:31:50;7.43;;;1.80;;
52898;SDS011;38763;53.096;6.062;2023-09-19T13:34:20;7.93;;;1.70;;
52898;SDS011;38763;53.096;6.062;2023-09-19T13:36:46;9.30;;;1.88;;
52898;SDS011;38763;53.096;6.062;2023-09-19T13:39:13;6.55;;;1.52;;
52898;SDS011;38763;53.096;6.062;2023-09-19T13:41:41;6.35;;;1.80;;
52898;SDS011;38763;53.096;6.062;2023-09-19T13:44:08;6.15;;;1.20;;
52898;SDS011;38763;53.096;6.062;2023-09-19T13:46:36;6.90;;;1.60;;
52898;SDS011;38763;53.096;6.062;2023-09-19T13:49:02;6.80;;;1.33;;
52898;SDS011;38763;53.096;6.062;2023-09-19T13:51:30;8.23;;;1.73;;
52898;SDS011;38763;53.096;6.062;2023-09-19T13:53:56;12.77;;;1.90;;
52898;SDS011;38763;53.096;6.062;2023-09-19T13:56:22;8.68;;;1.67;;
52898;SDS011;38763;53.096;6.062;2023-09-19T13:58:47;9.60;;;1.80;;
52898;SDS011;38763;53.096;6.062;2023-09-19T14:01:13;11.57;;;1.77;;
52898;SDS011;38763;53.096;6.062;2023-09-19T14:03:39;6.80;;;1.45;;
52898;SDS011;38763;53.096;6.062;2023-09-19T14:06:06;6.72;;;1.48;;
52898;SDS011;38763;53.096;6.062;2023-09-19T14:08:31;5.68;;;1.60;;
52898;SDS011;38763;53.096;6.062;2023-09-19T14:10:59;7.07;;;1.90;;
52898;SDS011;38763;53.096;6.062;2023-09-19T14:13:30;10.82;;;1.85;;
52898;SDS011;38763;53.096;6.062;2023-09-19T14:15:56;7.13;;;1.77;;
52898;SDS011;38763;53.096;6.062;2023-09-19T14:18:21;7.68;;;1.77;;
52898;SDS011;38763;53.096;6.062;2023-09-19T14:20:47;8.77;;;1.75;;
52898;SDS011;38763;53.096;6.062;2023-09-19T14:23:13;7.63;;;2.20;;
52898;SDS011;38763;53.096;6.062;2023-09-19T14:25:38;8.50;;;2.30;;
52898;SDS011;38763;53.096;6.062;2023-09-19T14:28:04;8.38;;;2.33;;
52898;SDS011;38763;53.096;6.062;2023-09-19T14:30:33;17.10;;;2.75;;
52898;SDS011;38763;53.096;6.062;2023-09-19T14:32:58;11.00;;;2.97;;
52898;SDS011;38763;53.096;6.062;2023-09-19T14:35:24;7.45;;;2.10;;
52898;SDS011;38763;53.096;6.062;2023-09-19T14:37:50;10.85;;;1.88;;
52898;SDS011;38763;53.096;6.062;2023-09-19T14:40:16;7.85;;;1.75;;
52898;SDS011;38763;53.096;6.062;2023-09-19T14:42:43;9.10;;;2.00;;
52898;SDS011;38763;53.096;6.062;2023-09-19T14:45:10;5.90;;;2.17;;
52898;SDS011;38763;53.096;6.062;2023-09-19T14:47:37;6.63;;;1.75;;
52898;SDS011;38763;53.096;6.062;2023-09-19T14:50:03;8.88;;;2.38;;
52898;SDS011;38763;53.096;6.062;2023-09-19T14:52:31;10.73;;;2.00;;
52898;SDS011;38763;53.096;6.062;2023-09-19T14:54:58;9.05;;;2.20;;
52898;SDS011;38763;53.096;6.062;2023-09-19T14:57:24;10.07;;;1.90;;
52898;SDS011;38763;53.096;6.062;2023-09-19T14:59:51;9.13;;;1.77;;
52898;SDS011;38763;53.096;6.062;2023-09-19T15:02:17;13.25;;;2.03;;
52898;SDS011;38763;53.096;6.062;2023-09-19T15:04:43;9.70;;;2.22;;
52898;SDS011;38763;53.096;6.062;2023-09-19T15:07:09;11.60;;;2.22;;
52898;SDS011;38763;53.096;6.062;2023-09-19T15:09:35;7.53;;;2.17;;
52898;SDS011;38763;53.096;6.062;2023-09-19T15:12:01;7.57;;;2.22;;
52898;SDS011;38763;53.096;6.062;2023-09-19T15:14:27;9.70;;;2.60;;
52898;SDS011;38763;53.096;6.062;2023-09-19T15:16:54;7.70;;;2.30;;
52898;SDS011;38763;53.096;6.062;2023-09-19T15:19:20;13.40;;;2.45;;
52898;SDS011;38763;53.096;6.062;2023-09-19T15:21:47;12.20;;;2.47;;
52898;SDS011;38763;53.096;6.062;2023-09-19T15:24:13;9.10;;;1.80;;
52898;SDS011;38763;53.096;6.062;2023-09-19T15:26:40;8.98;;;2.22;;
52898;SDS011;38763;53.096;6.062;2023-09-19T15:29:08;7.65;;;1.90;;
52898;SDS011;38763;53.096;6.062;2023-09-19T15:31:34;12.57;;;2.40;;
52898;SDS011;38763;53.096;6.062;2023-09-19T15:34:01;8.15;;;2.60;;
52898;SDS011;38763;53.096;6.062;2023-09-19T15:36:28;10.50;;;2.10;;
52898;SDS011;38763;53.096;6.062;2023-09-19T15:38:57;10.82;;;2.33;;
52898;SDS011;38763;53.096;6.062;2023-09-19T15:41:24;8.15;;;2.15;;
52898;SDS011;38763;53.096;6.062;2023-09-19T15:43:56;9.55;;;2.40;;
52898;SDS011;38763;53.096;6.062;2023-09-19T15:46:22;10.27;;;2.72;;
52898;SDS011;38763;53.096;6.062;2023-09-19T15:48:48;9.70;;;2.58;;
52898;SDS011;38763;53.096;6.062;2023-09-19T15:51:13;11.57;;;2.50;;
52898;SDS011;38763;53.096;6.062;2023-09-19T15:53:43;7.82;;;2.40;;